< < Back
Terminal Aerodrome Forecast


Current Version              Previous Versions:   1  2  3  4  5  6  7  8  9  

Terminal Aerodrome Forecast

735
FTUS44 KMRX 260520
TAFCHA
TAF
KCHA 260520Z 2606/2706 00000KT 6SM BR SKC
     FM260800 00000KT 3SM BR SKC
      TEMPO 2610/2612 1SM BR SCT005
     FM261300 VRB02KT 6SM BR SKC
     FM261400 36003KT P6SM SKC
     FM270000 00000KT P6SM SKC=



Latest METAR

550
SAUS80 KWBC 260800
MTRCHA
METAR KCHA 260753Z 00000KT 7SM CLR 13/12 A3002 RMK AO2 SLP161
T01280117


USA.gov is the U.S. government's official web portal to all federal, state and local government web resources and services.